Time;durP1;ratioP1;P1;durP2;ratioP2;P2;SDS_P1;SDS_P2;PMS_P1;PMS_P2;Temp;Humidity;BMP_temperature;BMP_pressure;BME280_temperature;BME280_humidity;BME280_pressure;Samples;Min_cycle;Max_cycle;Signal;HPM_P1;HPM_P2
2023/01/28 00:01:05;;;;;;;14.70;12.13;;;;;;;-2.00;100.00;97476.41;5044380;28;20202;-64
2023/01/28 00:03:33;;;;;;;14.43;11.37;;;;;;;-1.99;100.00;97479.84;5060528;28;20788;-64
2023/01/28 00:06:03;;;;;;;13.60;11.97;;;;;;;-2.08;100.00;97468.28;5067841;28;20403;-63
2023/01/28 00:08:32;;;;;;;17.00;12.33;;;;;;;-1.99;100.00;97477.25;5004079;28;20825;-65
2023/01/28 00:11:00;;;;;;;14.00;11.17;;;;;;;-1.96;100.00;97485.66;5068127;28;20198;-64
2023/01/28 00:13:29;;;;;;;13.33;11.87;;;;;;;-1.97;100.00;97484.00;5065326;28;20376;-66
2023/01/28 00:15:57;;;;;;;14.13;11.77;;;;;;;-2.01;100.00;97481.69;5044780;28;20206;-66
2023/01/28 00:18:25;;;;;;;13.90;12.40;;;;;;;-2.02;100.00;97487.81;5060535;28;20202;-63
2023/01/28 00:20:58;;;;;;;16.90;12.60;;;;;;;-2.06;100.00;97481.97;5069042;28;20214;-65
2023/01/28 00:23:26;;;;;;;14.00;11.90;;;;;;;-2.01;100.00;97489.50;5043881;28;20423;-63
2023/01/28 00:25:54;;;;;;;13.10;11.30;;;;;;;-2.02;100.00;97480.03;5022002;28;20216;-65
2023/01/28 00:28:22;;;;;;;15.13;12.43;;;;;;;-1.98;100.00;97484.91;5076007;28;20202;-65
2023/01/28 00:30:50;;;;;;;14.57;12.03;;;;;;;-1.99;100.00;97482.44;5066772;28;20199;-64
2023/01/28 00:33:18;;;;;;;14.73;11.43;;;;;;;-1.97;100.00;97477.97;5047992;28;20305;-63
2023/01/28 00:35:46;;;;;;;13.03;11.27;;;;;;;-1.97;100.00;97481.38;5070619;28;20205;-63
2023/01/28 00:38:14;;;;;;;17.97;13.40;;;;;;;-1.93;100.00;97485.44;5046957;28;20293;-62
2023/01/28 00:40:42;;;;;;;14.40;11.13;;;;;;;-1.98;100.00;97478.91;5019695;28;20656;-61
2023/01/28 00:43:09;;;;;;;12.43;11.00;;;;;;;-1.88;100.00;97486.94;5062881;28;20388;-62
2023/01/28 00:45:37;;;;;;;13.30;11.80;;;;;;;-1.91;100.00;97487.97;5068476;28;20690;-64
2023/01/28 00:48:07;;;;;;;12.90;11.40;;;;;;;-1.94;100.00;97488.97;5049398;28;20612;-62
2023/01/28 00:50:34;;;;;;;14.40;12.10;;;;;;;-1.93;100.00;97485.44;5065277;28;20222;-64
2023/01/28 00:53:02;;;;;;;15.37;12.43;;;;;;;-1.93;100.00;97487.25;5047988;28;20209;-60
2023/01/28 00:55:29;;;;;;;17.50;11.90;;;;;;;-1.93;100.00;97484.63;5019441;28;20350;-62
2023/01/28 00:57:57;;;;;;;13.87;11.53;;;;;;;-1.92;100.00;97483.69;5060586;28;20629;-64
2023/01/28 01:00:26;;;;;;;12.77;10.87;;;;;;;-1.87;100.00;97486.84;5063951;28;20222;-65
2023/01/28 01:02:53;;;;;;;11.43;10.03;;;;;;;-1.91;100.00;97493.16;5048251;28;20222;-65
2023/01/28 01:05:22;;;;;;;12.67;11.23;;;;;;;-1.92;100.00;97479.31;5058809;28;20335;-61
2023/01/28 01:07:50;;;;;;;13.40;10.07;;;;;;;-1.94;100.00;97477.78;5061809;28;20217;-65
2023/01/28 01:10:19;;;;;;;12.63;11.13;;;;;;;-1.91;100.00;97483.59;5021397;28;20328;-63
2023/01/28 01:12:47;;;;;;;11.83;10.63;;;;;;;-1.89;100.00;97486.09;5059281;28;20439;-65
2023/01/28 01:15:16;;;;;;;12.30;9.70;;;;;;;-1.90;100.00;97490.44;5062170;28;20225;-65
2023/01/28 01:17:45;;;;;;;13.53;11.33;;;;;;;-1.99;100.00;97487.63;5044695;28;20552;-64
2023/01/28 01:20:16;;;;;;;12.03;10.67;;;;;;;-1.84;100.00;97501.41;5061246;28;20610;-62
2023/01/28 01:22:45;;;;;;;12.77;10.50;;;;;;;-1.91;100.00;97506.16;5060950;28;20466;-64
2023/01/28 01:25:14;;;;;;;12.43;11.03;;;;;;;-1.93;100.00;97505.41;5069640;28;20214;-63
2023/01/28 01:27:42;;;;;;;12.37;10.93;;;;;;;-2.01;100.00;97510.28;5026334;28;20243;-64
2023/01/28 01:30:11;;;;;;;14.93;11.43;;;;;;;-2.07;100.00;97499.34;5067703;28;20222;-65
2023/01/28 01:32:39;;;;;;;13.40;10.10;;;;;;;-2.01;100.00;97505.88;5040450;28;20282;-62
2023/01/28 01:35:09;;;;;;;13.60;11.03;;;;;;;-2.05;100.00;97494.88;5070483;28;20199;-65
2023/01/28 01:37:36;;;;;;;13.03;10.87;;;;;;;-1.95;100.00;97507.28;5059175;28;20198;-61
2023/01/28 01:40:08;;;;;;;12.10;10.67;;;;;;;-1.94;100.00;97496.78;5053049;28;20229;-65
2023/01/28 01:42:35;;;;;;;12.73;10.80;;;;;;;-1.90;100.00;97497.44;5032276;28;20214;-63
2023/01/28 01:45:05;;;;;;;12.63;10.00;;;;;;;-1.87;100.00;97506.81;5068096;28;20190;-65
2023/01/28 01:47:38;;;;;;;12.17;9.83;;;;;;;-1.85;100.00;97497.97;5057373;28;20466;-64
2023/01/28 01:50:12;;;;;;;11.43;10.27;;;;;;;-1.81;100.00;97509.81;5069150;28;20239;-65
2023/01/28 01:52:41;;;;;;;12.80;10.40;;;;;;;-1.84;100.00;97522.19;5059330;28;20232;-62
2023/01/28 01:55:12;;;;;;;11.43;9.93;;;;;;;-1.91;100.00;97512.16;5069618;28;20221;-64
2023/01/28 01:57:42;;;;;;;12.07;10.67;;;;;;;-1.85;100.00;97504.94;5004101;28;26009;-61
2023/01/28 02:00:10;;;;;;;11.10;8.93;;;;;;;-1.81;100.00;97509.00;5069466;28;20233;-61
2023/01/28 02:02:40;;;;;;;12.27;10.70;;;;;;;-1.74;100.00;97505.06;5062791;28;20239;-62
2023/01/28 02:05:09;;;;;;;12.47;9.83;;;;;;;-1.77;100.00;97508.69;5049251;28;20213;-63
2023/01/28 02:07:37;;;;;;;11.33;9.97;;;;;;;-1.87;100.00;97512.81;5067510;28;20201;-62
2023/01/28 02:10:06;;;;;;;11.43;10.23;;;;;;;-1.93;100.00;97513.22;5069330;28;21268;-62
2023/01/28 02:12:37;;;;;;;11.57;10.37;;;;;;;-1.91;100.00;97522.56;5017174;28;20401;-63
2023/01/28 02:15:08;;;;;;;10.93;9.83;;;;;;;-1.90;100.00;97519.03;5059911;28;20261;-65
2023/01/28 02:17:36;;;;;;;10.53;9.43;;;;;;;-1.92;100.00;97514.88;5063169;28;20216;-62
2023/01/28 02:20:06;;;;;;;11.13;10.10;;;;;;;-1.96;100.00;97521.19;5050535;28;20222;-64
2023/01/28 02:22:56;;;;;;;10.07;8.83;;;;;;;-1.94;100.00;97517.56;5065516;28;20194;-63
2023/01/28 02:25:56;;;;;;;10.03;8.50;;;;;;;-1.94;100.00;97517.56;5066731;28;20206;-61
2023/01/28 02:28:32;;;;;;;12.53;9.77;;;;;;;-1.91;100.00;97524.34;5028080;28;20206;-62
2023/01/28 02:31:06;;;;;;;11.53;10.37;;;;;;;-1.95;100.00;97525.47;5059146;28;20271;-66
2023/01/28 02:33:39;;;;;;;10.60;9.57;;;;;;;-1.96;100.00;97531.59;5069409;28;20204;-62
2023/01/28 02:36:15;;;;;;;11.40;10.20;;;;;;;-1.98;100.00;97529.06;5043556;28;20232;-62
2023/01/28 02:38:45;;;;;;;10.33;9.00;;;;;;;-2.02;100.00;97525.00;5060127;28;20218;-64
2023/01/28 02:41:17;;;;;;;10.30;9.13;;;;;;;-1.99;100.00;97529.19;5043339;28;20241;-64
2023/01/28 02:43:47;;;;;;;10.03;9.10;;;;;;;-1.98;100.00;97530.84;5043224;28;20202;-63
2023/01/28 02:49:10;;;;;;;10.43;9.07;;;;;;;-2.05;100.00;97533.84;5059432;28;20218;-63
2023/01/28 02:51:46;;;;;;;10.80;9.13;;;;;;;-2.01;100.00;97525.84;5040504;28;20693;-62
2023/01/28 02:54:18;;;;;;;10.10;9.07;;;;;;;-1.98;100.00;97528.25;5064571;28;20199;-64
2023/01/28 02:56:52;;;;;;;11.67;8.73;;;;;;;-2.03;100.00;97523.34;5059100;28;20216;-62
2023/01/28 02:59:31;;;;;;;10.20;9.13;;;;;;;-2.04;100.00;97521.66;5055477;28;20237;-63
2023/01/28 03:02:03;;;;;;;10.63;9.63;;;;;;;-2.01;100.00;97528.44;5043516;28;20222;-63
2023/01/28 03:04:35;;;;;;;12.23;9.10;;;;;;;-2.07;100.00;97521.88;5064242;28;20225;-61
2023/01/28 03:07:05;;;;;;;11.57;9.53;;;;;;;-2.06;100.00;97531.31;5022419;28;20206;-63
2023/01/28 03:09:33;;;;;;;11.30;8.73;;;;;;;-2.03;100.00;97528.53;5066268;28;20451;-61
2023/01/28 03:37:08;;;;;;;11.27;9.63;;;;;;;-2.05;100.00;97533.84;5051098;28;20203;-60
2023/01/28 03:39:37;;;;;;;9.80;8.80;;;;;;;-2.05;100.00;97526.03;5059974;28;20710;-64
2023/01/28 03:42:06;;;;;;;10.53;8.83;;;;;;;-1.95;100.00;97544.47;5062203;28;20314;-62
2023/01/28 03:44:50;;;;;;;9.60;8.70;;;;;;;-1.97;100.00;97541.13;5064972;28;20241;-63
2023/01/28 03:47:21;;;;;;;10.17;9.13;;;;;;;-1.99;100.00;97550.78;5039848;28;20435;-62
2023/01/28 03:49:50;;;;;;;10.80;9.70;;;;;;;-1.94;100.00;97553.09;5054529;28;20304;-62
2023/01/28 03:52:20;;;;;;;9.50;8.60;;;;;;;-1.93;100.00;97554.75;5044112;28;20233;-61
2023/01/28 03:54:48;;;;;;;10.13;9.10;;;;;;;-1.94;100.00;97550.50;5069690;28;20208;-64
2023/01/28 03:57:17;;;;;;;10.77;9.67;;;;;;;-1.90;100.00;97554.56;5066079;28;20207;-60
2023/01/28 03:59:44;;;;;;;10.00;9.00;;;;;;;-2.01;100.00;97552.63;5064930;28;20226;-64
2023/01/28 04:02:14;;;;;;;12.30;9.73;;;;;;;-1.94;100.00;97553.09;5042275;28;20896;-62
2023/01/28 04:04:43;;;;;;;9.97;9.03;;;;;;;-2.01;100.00;97557.84;5044770;28;20870;-64
2023/01/28 04:07:13;;;;;;;12.90;10.27;;;;;;;-1.94;100.00;97560.88;5060419;28;20393;-62
2023/01/28 04:09:41;;;;;;;11.33;9.37;;;;;;;-1.96;100.00;97552.34;5051132;28;20333;-62
2023/01/28 04:12:09;;;;;;;10.37;9.30;;;;;;;-2.10;100.00;97553.22;5066303;28;20573;-61
2023/01/28 04:14:38;;;;;;;10.23;9.27;;;;;;;-2.10;100.00;97561.00;5043287;28;20203;-64
2023/01/28 04:17:06;;;;;;;10.77;9.60;;;;;;;-2.04;100.00;97561.47;5044250;28;20202;-60
2023/01/28 04:19:36;;;;;;;11.03;9.70;;;;;;;-1.96;100.00;97565.34;5023997;28;20230;-63
2023/01/28 04:22:06;;;;;;;11.67;9.20;;;;;;;-1.96;100.00;97560.16;5063754;28;20766;-61
2023/01/28 04:24:34;;;;;;;10.07;9.07;;;;;;;-2.01;100.00;97559.59;5040348;28;20744;-60
2023/01/28 04:27:01;;;;;;;11.23;10.03;;;;;;;-1.97;100.00;97568.88;5063136;28;20237;-63
2023/01/28 04:29:30;;;;;;;10.53;9.53;;;;;;;-1.99;100.00;97568.13;5065253;28;20238;-62
2023/01/28 04:31:58;;;;;;;12.37;9.67;;;;;;;-2.02;100.00;97566.56;5045415;28;20193;-62
2023/01/28 04:34:25;;;;;;;11.57;10.10;;;;;;;-2.00;100.00;97575.06;5008084;28;20834;-63
2023/01/28 04:36:53;;;;;;;10.43;9.33;;;;;;;-2.04;100.00;97568.41;5031892;28;20554;-62
2023/01/28 04:39:22;;;;;;;9.87;8.87;;;;;;;-2.06;100.00;97571.13;5043906;28;20218;-63
2023/01/28 04:41:49;;;;;;;10.67;9.57;;;;;;;-2.01;100.00;97564.81;5068748;28;20268;-64
2023/01/28 04:44:17;;;;;;;12.23;9.83;;;;;;;-2.01;100.00;97573.41;5061789;28;20202;-62
2023/01/28 04:46:45;;;;;;;9.63;8.63;;;;;;;-2.06;100.00;97571.13;5044337;28;20201;-62
2023/01/28 04:49:12;;;;;;;10.63;9.47;;;;;;;-1.97;100.00;97579.25;5060292;28;20430;-65
2023/01/28 04:51:40;;;;;;;11.10;9.90;;;;;;;-2.08;100.00;97572.97;5017989;28;20206;-62
2023/01/28 04:54:08;;;;;;;11.50;10.30;;;;;;;-2.09;100.00;97575.66;5070315;28;20202;-64
2023/01/28 04:56:37;;;;;;;11.90;9.90;;;;;;;-2.08;100.00;97578.19;5051513;28;20217;-63
2023/01/28 04:59:05;;;;;;;12.23;10.67;;;;;;;-1.99;100.00;97578.53;5069541;28;20457;-66
2023/01/28 05:01:32;;;;;;;12.13;10.50;;;;;;;-2.09;100.00;97581.66;5069650;28;20229;-63
2023/01/28 05:04:04;;;;;;;10.97;9.83;;;;;;;-2.05;100.00;97584.91;5032877;28;21786;-65
2023/01/28 05:06:31;;;;;;;11.10;10.00;;;;;;;-2.04;100.00;97576.19;5020999;28;20202;-63
2023/01/28 05:08:59;;;;;;;14.40;11.73;;;;;;;-2.03;100.00;97580.47;5062663;28;20558;-63
2023/01/28 05:11:27;;;;;;;14.37;12.90;;;;;;;-2.00;100.00;97579.47;5046511;28;20210;-63
2023/01/28 05:13:56;;;;;;;13.43;12.03;;;;;;;-1.99;100.00;97579.34;5055291;28;20202;-63
2023/01/28 05:16:23;;;;;;;13.27;11.43;;;;;;;-1.99;100.00;97576.75;5062762;28;20198;-65
2023/01/28 05:18:51;;;;;;;13.50;11.03;;;;;;;-1.97;100.00;97584.47;5043131;28;20399;-62
2023/01/28 05:21:18;;;;;;;16.27;11.43;;;;;;;-1.96;100.00;97575.72;5014834;28;20214;-63
2023/01/28 05:23:46;;;;;;;11.60;9.93;;;;;;;-1.96;100.00;97573.97;5059573;28;20206;-64
2023/01/28 05:26:13;;;;;;;12.87;11.40;;;;;;;-2.00;100.00;97577.69;5048975;28;20586;-66
2023/01/28 05:28:41;;;;;;;13.63;12.23;;;;;;;-2.08;100.00;97566.94;5062630;28;20214;-62
2023/01/28 05:31:10;;;;;;;13.82;11.80;;;;;;;-2.11;100.00;97562.75;5064481;28;20862;-66
2023/01/28 05:33:38;;;;;;;15.40;11.03;;;;;;;-2.12;100.00;97562.88;5043011;28;20210;-63
2023/01/28 05:36:06;;;;;;;11.97;10.70;;;;;;;-2.08;100.00;97567.78;5014411;28;20586;-63
2023/01/28 05:38:34;;;;;;;12.30;11.10;;;;;;;-2.07;100.00;97569.44;5060576;28;20201;-63
2023/01/28 05:41:01;;;;;;;12.23;11.00;;;;;;;-2.15;100.00;97563.88;5059746;28;20303;-64
2023/01/28 05:43:29;;;;;;;12.43;11.03;;;;;;;-2.17;100.00;97573.53;5044839;28;20226;-66
2023/01/28 05:45:57;;;;;;;15.13;12.90;;;;;;;-2.14;100.00;97575.94;5062869;28;20213;-65
2023/01/28 05:48:26;;;;;;;17.53;15.40;;;;;;;-2.18;100.00;97566.66;5025976;28;20203;-64
2023/01/28 05:50:53;;;;;;;14.27;12.73;;;;;;;-2.13;100.00;97574.19;5066146;28;20208;-66
2023/01/28 05:53:21;;;;;;;13.23;11.80;;;;;;;-2.08;100.00;97574.72;5021660;28;20718;-64
2023/01/28 05:55:49;;;;;;;12.23;10.80;;;;;;;-2.09;100.00;97571.28;5061523;28;20201;-66
2023/01/28 05:58:18;;;;;;;13.23;10.97;;;;;;;-2.14;100.00;97577.72;5045819;28;21446;-64
2023/01/28 06:00:46;;;;;;;11.93;10.07;;;;;;;-2.16;100.00;97582.16;5061341;28;20474;-67
2023/01/28 06:03:14;;;;;;;12.33;10.60;;;;;;;-2.19;100.00;97581.41;5065179;28;20726;-64
2023/01/28 06:05:42;;;;;;;13.17;10.60;;;;;;;-2.11;100.00;97583.53;5049882;28;21036;-64
2023/01/28 06:08:10;;;;;;;15.03;12.83;;;;;;;-2.13;100.00;97585.38;4997990;28;20218;-64
2023/01/28 06:10:38;;;;;;;11.53;10.37;;;;;;;-2.09;100.00;97586.88;5067556;28;20421;-67
2023/01/28 06:13:05;;;;;;;12.57;9.87;;;;;;;-2.13;100.00;97577.59;5041702;28;20273;-66
2023/01/28 06:15:33;;;;;;;11.47;10.27;;;;;;;-2.07;100.00;97595.41;5063520;28;20289;-63
2023/01/28 06:18:00;;;;;;;14.17;11.23;;;;;;;-2.17;100.00;97599.50;5046091;28;20230;-64
2023/01/28 06:20:28;;;;;;;12.53;9.90;;;;;;;-2.17;100.00;97603.88;5055192;28;20892;-65
2023/01/28 06:22:57;;;;;;;12.50;10.90;;;;;;;-2.18;100.00;97600.41;5066260;28;20636;-65
2023/01/28 06:25:24;;;;;;;14.20;12.70;;;;;;;-2.09;100.00;97593.84;4997663;28;21299;-64
2023/01/28 06:27:52;;;;;;;12.67;10.77;;;;;;;-2.04;100.00;97608.22;5066085;28;20199;-66
2023/01/28 06:30:19;;;;;;;10.57;9.47;;;;;;;-2.05;100.00;97610.88;5028906;28;20241;-64
2023/01/28 06:32:47;;;;;;;11.50;9.33;;;;;;;-2.08;100.00;97613.69;5043336;28;20217;-64
2023/01/28 06:35:15;;;;;;;11.67;9.50;;;;;;;-2.05;100.00;97608.28;5047932;28;20867;-64
2023/01/28 06:37:44;;;;;;;13.00;11.48;;;;;;;-2.07;100.00;97615.34;5047713;28;20457;-65
2023/01/28 06:40:13;;;;;;;10.57;9.57;;;;;;;-2.05;100.00;97619.53;5019381;28;20238;-63
2023/01/28 06:42:41;;;;;;;10.60;9.53;;;;;;;-2.05;100.00;97629.91;5067595;28;20244;-63
2023/01/28 06:45:09;;;;;;;10.70;9.60;;;;;;;-2.04;100.00;97626.38;5047410;28;21267;-64
2023/01/28 06:47:38;;;;;;;11.33;10.17;;;;;;;-2.01;100.00;97632.31;5065928;28;20398;-64
2023/01/28 06:50:06;;;;;;;11.03;9.93;;;;;;;-2.03;100.00;97632.41;5067168;28;20645;-63
2023/01/28 06:52:34;;;;;;;11.50;10.03;;;;;;;-2.06;100.00;97638.63;5068094;28;20206;-65
2023/01/28 06:55:02;;;;;;;12.77;10.83;;;;;;;-2.04;100.00;97635.94;5050656;28;20566;-64
2023/01/28 06:57:31;;;;;;;11.43;10.33;;;;;;;-2.03;100.00;97640.19;5052579;28;20603;-65
2023/01/28 06:59:59;;;;;;;11.97;10.77;;;;;;;-2.12;100.00;97630.38;5062880;28;20747;-63
2023/01/28 07:02:26;;;;;;;12.83;11.10;;;;;;;-2.08;100.00;97644.84;5056787;28;20796;-66
2023/01/28 07:04:54;;;;;;;13.17;11.67;;;;;;;-2.05;100.00;97644.66;5071860;28;20195;-64
2023/01/28 07:07:21;;;;;;;17.23;12.47;;;;;;;-2.04;100.00;97647.16;5063156;28;20443;-64
2023/01/28 07:09:49;;;;;;;17.10;12.97;;;;;;;-2.05;100.00;97652.44;5070257;28;20783;-66
2023/01/28 07:12:17;;;;;;;13.60;12.17;;;;;;;-2.04;100.00;97656.72;5018209;28;21991;-66
2023/01/28 07:14:46;;;;;;;15.80;13.50;;;;;;;-2.00;100.00;97655.59;5067194;28;20198;-66
2023/01/28 07:17:13;;;;;;;14.90;12.57;;;;;;;-1.96;100.00;97661.44;5045490;28;20699;-66
2023/01/28 07:19:41;;;;;;;19.67;14.13;;;;;;;-1.92;100.00;97668.13;5073213;28;20261;-66
2023/01/28 07:22:08;;;;;;;17.97;13.27;;;;;;;-1.89;100.00;97667.94;5058647;28;20207;-64
2023/01/28 07:24:36;;;;;;;16.43;12.53;;;;;;;-1.89;100.00;97670.53;5067305;28;20219;-67
2023/01/28 07:27:04;;;;;;;14.57;12.47;;;;;;;-1.85;100.00;97663.38;5021175;28;20710;-63
2023/01/28 07:29:32;;;;;;;17.73;13.90;;;;;;;-1.84;100.00;97665.06;5072214;28;20241;-66
2023/01/28 07:32:01;;;;;;;17.67;14.83;;;;;;;-1.81;100.00;97667.47;5060491;28;20195;-66
2023/01/28 07:34:28;;;;;;;15.13;13.00;;;;;;;-1.78;100.00;97670.69;5059897;28;20213;-66
2023/01/28 07:36:56;;;;;;;18.93;14.90;;;;;;;-1.80;100.00;97664.75;5068206;28;20205;-64
2023/01/28 07:39:24;;;;;;;15.40;13.43;;;;;;;-1.81;100.00;97667.47;5065995;28;20545;-67
2023/01/28 07:41:51;;;;;;;16.37;13.60;;;;;;;-1.76;100.00;97668.84;5026058;28;20214;-66
2023/01/28 07:44:19;;;;;;;14.13;12.63;;;;;;;-1.67;100.00;97672.63;5062062;28;20849;-64
2023/01/28 07:46:46;;;;;;;16.20;12.27;;;;;;;-1.66;100.00;97666.50;5068727;28;20208;-66
2023/01/28 07:49:15;;;;;;;15.57;13.13;;;;;;;-1.61;100.00;97674.84;5045652;28;20338;-65
2023/01/28 07:51:45;;;;;;;17.10;14.10;;;;;;;-1.56;100.00;97678.91;5071148;28;20272;-66
2023/01/28 07:54:13;;;;;;;15.97;14.27;;;;;;;-1.58;100.00;97679.03;5064701;28;20221;-65
2023/01/28 07:56:40;;;;;;;18.80;13.93;;;;;;;-1.56;100.00;97681.53;5026930;28;20233;-63
2023/01/28 07:59:08;;;;;;;15.30;13.70;;;;;;;-1.52;100.00;97678.66;5067535;28;20223;-63
2023/01/28 08:01:35;;;;;;;17.03;15.17;;;;;;;-1.56;100.00;97689.31;5073705;28;20202;-65
2023/01/28 08:04:03;;;;;;;15.40;13.67;;;;;;;-1.57;100.00;97691.09;5057094;28;20736;-64
2023/01/28 08:06:36;;;;;;;16.03;14.27;;;;;;;-1.59;100.00;97692.97;5057871;28;20207;-63
2023/01/28 08:09:05;;;;;;;16.83;13.63;;;;;;;-1.55;100.00;97694.44;5060920;28;20271;-62
2023/01/28 08:11:32;;;;;;;15.23;13.17;;;;;;;-1.56;100.00;97697.97;5069450;28;20199;-65
2023/01/28 08:14:00;;;;;;;19.73;13.67;;;;;;;-1.47;100.00;97689.59;5021344;28;20410;-62
2023/01/28 08:16:28;;;;;;;15.27;13.57;;;;;;;-1.49;100.00;97696.66;5067068;28;20225;-60
2023/01/28 08:18:56;;;;;;;17.07;12.97;;;;;;;-1.50;100.00;97688.97;5060376;28;20225;-63
2023/01/28 08:21:23;;;;;;;16.17;13.90;;;;;;;-1.35;100.00;97697.53;5046669;28;20206;-65
2023/01/28 08:23:53;;;;;;;18.93;15.77;;;;;;;-1.37;100.00;97691.59;5064257;28;20258;-65
2023/01/28 08:26:21;;;;;;;17.97;14.47;;;;;;;-1.36;100.00;97690.66;5062286;28;20206;-63
2023/01/28 08:28:48;;;;;;;18.63;14.20;;;;;;;-1.25;100.00;97693.44;5023494;28;20218;-65
2023/01/28 08:31:18;;;;;;;18.20;14.93;;;;;;;-1.31;100.00;97691.25;5061901;28;20335;-65
2023/01/28 08:33:45;;;;;;;15.43;13.70;;;;;;;-1.19;100.00;97694.81;5065072;28;20194;-65
2023/01/28 08:36:13;;;;;;;16.50;14.70;;;;;;;-1.21;100.00;97683.66;5046635;28;20205;-63
2023/01/28 08:38:41;;;;;;;15.63;13.93;;;;;;;-1.12;100.00;97693.50;5073946;28;20197;-64
2023/01/28 08:41:09;;;;;;;23.60;17.60;;;;;;;-1.02;100.00;97685.94;5066722;28;20452;-63
2023/01/28 08:43:37;;;;;;;17.40;14.30;;;;;;;-1.16;100.00;97684.22;5028415;28;20226;-65
2023/01/28 08:46:05;;;;;;;16.33;13.47;;;;;;;-1.15;100.00;97680.69;5064134;28;20214;-63
2023/01/28 08:48:33;;;;;;;22.97;14.50;;;;;;;-1.07;100.00;97686.25;5063136;28;20207;-65
2023/01/28 08:51:00;;;;;;;20.73;15.53;;;;;;;-0.96;100.00;97684.72;5047724;28;20423;-63
2023/01/28 08:53:28;;;;;;;15.03;13.30;;;;;;;-0.99;100.00;97684.91;5068866;28;20221;-65
2023/01/28 08:55:55;;;;;;;14.73;13.23;;;;;;;-1.05;100.00;97675.72;5067364;28;20215;-62
2023/01/28 08:58:25;;;;;;;17.17;13.90;;;;;;;-0.97;100.00;97683.03;5024775;28;20758;-63
2023/01/28 09:00:52;;;;;;;17.77;14.00;;;;;;;-0.97;100.00;97681.25;5067485;28;20194;-63
2023/01/28 09:03:20;;;;;;;17.27;13.03;;;;;;;-0.95;100.00;97687.19;5056522;28;20405;-65
2023/01/28 09:05:48;;;;;;;14.57;12.90;;;;;;;-0.99;100.00;97685.72;5050883;28;20574;-65
2023/01/28 09:08:16;;;;;;;14.97;13.37;;;;;;;-1.09;100.00;97689.88;5062337;28;20664;-63
2023/01/28 09:10:43;;;;;;;17.00;14.13;;;;;;;-0.95;100.00;97701.97;5070851;28;20218;-65
2023/01/28 09:13:13;;;;;;;15.23;13.27;;;;;;;-0.89;100.00;97705.03;5058519;28;20573;-62
2023/01/28 09:15:42;;;;;;;14.03;12.50;;;;;;;-0.85;100.00;97704.84;5025004;28;20236;-65
2023/01/28 09:18:10;;;;;;;16.03;14.13;;;;;;;-0.85;100.00;97707.44;5067520;28;20296;-63
2023/01/28 09:20:38;;;;;;;15.70;13.00;;;;;;;-0.99;100.00;97703.13;5068222;28;20218;-63
2023/01/28 09:23:06;;;;;;;15.57;12.83;;;;;;;-1.04;100.00;97708.59;5047280;28;20596;-62
2023/01/28 09:25:35;;;;;;;17.17;14.50;;;;;;;-1.07;100.00;97709.66;5063579;28;20317;-64
2023/01/28 09:28:02;;;;;;;15.63;12.97;;;;;;;-1.04;100.00;97714.66;5061438;28;20685;-62
2023/01/28 09:30:31;;;;;;;15.90;12.80;;;;;;;-1.00;100.00;97710.06;5016689;28;21909;-65
2023/01/28 09:33:00;;;;;;;17.40;13.90;;;;;;;-0.98;100.00;97707.38;5070730;28;20300;-62
2023/01/28 09:35:27;;;;;;;15.17;12.90;;;;;;;-0.85;100.00;97718.66;5070541;28;20823;-64
2023/01/28 09:37:57;;;;;;;16.13;13.30;;;;;;;-0.71;100.00;97715.16;5048848;28;20538;-63
2023/01/28 09:40:32;;;;;;;16.37;13.53;;;;;;;-0.68;100.00;97725.38;5071091;28;20801;-64
2023/01/28 09:43:18;;;;;;;17.03;14.33;;;;;;;-0.59;100.00;97721.34;5071730;28;20679;-62
2023/01/28 09:45:48;;;;;;;16.80;14.47;;;;;;;-0.62;100.00;97714.56;5024749;28;20241;-65
2023/01/28 09:48:20;;;;;;;16.07;14.37;;;;;;;-0.59;100.00;97726.56;5066147;28;20289;-65
2023/01/28 09:50:50;;;;;;;16.57;14.23;;;;;;;-0.59;100.00;97719.56;5072760;28;20213;-63
2023/01/28 09:53:20;;;;;;;17.37;13.27;;;;;;;-0.70;100.00;97721.22;5043036;28;20309;-65
2023/01/28 09:55:50;;;;;;;16.53;13.20;;;;;;;-0.84;100.00;97719.50;5068827;28;20232;-65
2023/01/28 09:58:18;;;;;;;15.10;13.07;;;;;;;-0.80;100.00;97724.41;5069304;28;20202;-65
2023/01/28 10:00:53;;;;;;;14.73;13.07;;;;;;;-0.82;100.00;97730.66;5067957;28;20234;-64
2023/01/28 10:03:39;;;;;;;16.00;13.03;;;;;;;-0.85;100.00;97726.47;5027328;28;20537;-65
2023/01/28 10:06:16;;;;;;;14.57;12.73;;;;;;;-0.88;100.00;97737.06;5065669;28;20637;-62
2023/01/28 10:09:05;;;;;;;16.73;14.63;;;;;;;-0.85;100.00;97736.88;5070111;28;20229;-65
2023/01/28 10:11:45;;;;;;;16.83;14.87;;;;;;;-0.82;100.00;97733.25;5065692;28;20210;-65
2023/01/28 10:14:18;;;;;;;15.10;12.80;;;;;;;-0.79;100.00;97735.66;5063737;28;20577;-66
2023/01/28 10:16:49;;;;;;;16.20;13.67;;;;;;;-0.77;100.00;97733.78;5070731;28;20194;-67
2023/01/28 10:19:22;;;;;;;14.57;13.03;;;;;;;-0.88;100.00;97734.47;5019977;28;20541;-67
2023/01/28 10:21:52;;;;;;;17.50;14.43;;;;;;;-0.95;100.00;97730.59;5070317;28;20530;-65
2023/01/28 10:24:25;;;;;;;16.20;13.03;;;;;;;-1.03;100.00;97724.13;5050046;28;20999;-64
2023/01/28 10:26:53;;;;;;;18.43;15.07;;;;;;;-0.98;100.00;97731.63;5067544;28;20324;-62
2023/01/28 10:29:23;;;;;;;16.97;13.20;;;;;;;-0.97;100.00;97728.09;5063585;28;20222;-65
2023/01/28 10:31:53;;;;;;;16.43;13.50;;;;;;;-1.04;100.00;97739.81;5067923;28;20621;-62
2023/01/28 10:34:23;;;;;;;14.73;12.30;;;;;;;-1.12;100.00;97735.13;5028852;28;20219;-64
2023/01/28 10:36:50;;;;;;;15.77;13.53;;;;;;;-1.11;100.00;97738.53;5068865;28;20198;-63
2023/01/28 10:39:21;;;;;;;18.00;14.07;;;;;;;-1.07;100.00;97733.06;5068278;28;20226;-64
2023/01/28 10:41:48;;;;;;;16.27;13.63;;;;;;;-1.05;100.00;97736.41;5053921;28;20716;-64
2023/01/28 10:44:30;;;;;;;14.70;13.07;;;;;;;-1.04;100.00;97729.41;5059684;28;20433;-65
2023/01/28 10:47:01;;;;;;;15.43;12.27;;;;;;;-1.02;100.00;97722.34;5073493;28;20521;-62
2023/01/28 10:49:31;;;;;;;16.43;12.17;;;;;;;-0.91;100.00;97725.13;5027760;28;20222;-64
2023/01/28 10:51:59;;;;;;;16.27;12.70;;;;;;;-0.74;100.00;97725.78;5069831;28;20745;-62
2023/01/28 10:54:28;;;;;;;14.77;12.83;;;;;;;-0.64;100.00;97732.06;5066977;28;20214;-64
2023/01/28 10:56:59;;;;;;;14.87;12.90;;;;;;;-0.65;100.00;97725.19;5044451;28;20316;-62
2023/01/28 10:59:28;;;;;;;13.73;11.67;;;;;;;-0.62;100.00;97724.97;5064918;28;20777;-65
2023/01/28 11:01:57;;;;;;;14.93;12.47;;;;;;;-0.75;100.00;97724.97;5067354;28;20608;-62
2023/01/28 11:04:26;;;;;;;14.10;12.00;;;;;;;-0.83;100.00;97710.78;5024221;28;20832;-60
2023/01/28 11:06:58;;;;;;;15.63;12.77;;;;;;;-0.75;100.00;97724.13;5073947;28;20778;-62
2023/01/28 11:09:29;;;;;;;14.83;13.13;;;;;;;-0.67;100.00;97728.84;5064203;28;20316;-64
2023/01/28 11:11:57;;;;;;;13.00;11.27;;;;;;;-0.82;100.00;97722.84;5053037;28;20525;-62
2023/01/28 11:14:27;;;;;;;16.13;13.13;;;;;;;-0.77;100.00;97715.56;5068014;28;20376;-64
2023/01/28 11:16:56;;;;;;;13.67;11.87;;;;;;;-0.78;100.00;97732.94;5065067;28;20547;-62
2023/01/28 11:19:29;;;;;;;13.53;12.13;;;;;;;-0.81;100.00;97722.72;5019293;28;21269;-61
2023/01/28 11:21:58;;;;;;;11.93;10.77;;;;;;;-0.80;100.00;97731.38;5065181;28;20206;-62
2023/01/28 11:24:28;;;;;;;14.00;11.97;;;;;;;-0.77;100.00;97725.97;5064640;28;20645;-63
2023/01/28 11:26:58;;;;;;;12.53;11.30;;;;;;;-0.81;100.00;97711.50;5053175;28;20210;-62
2023/01/28 11:29:30;;;;;;;12.57;9.97;;;;;;;-0.62;100.00;97727.56;5064533;28;20799;-65
2023/01/28 11:31:59;;;;;;;11.47;10.13;;;;;;;-0.72;100.00;97723.91;5067084;28;20213;-64
2023/01/28 11:34:29;;;;;;;11.20;10.03;;;;;;;-0.68;100.00;97722.78;5020837;28;20450;-67
2023/01/28 11:37:04;;;;;;;12.47;11.00;;;;;;;-0.55;100.00;97729.81;5069111;28;20198;-64
2023/01/28 11:39:32;;;;;;;14.40;12.37;;;;;;;-0.49;100.00;97719.81;5070468;28;20245;-66
2023/01/28 11:42:16;;;;;;;12.47;11.20;;;;;;;-0.60;100.00;97724.88;5053308;28;20207;-65
2023/01/28 11:44:44;;;;;;;9.67;8.77;;;;;;;-0.73;100.00;97719.66;5068204;28;20202;-67
2023/01/28 11:47:34;;;;;;;11.23;9.43;;;;;;;-0.73;100.00;97723.09;5066246;28;20648;-65
2023/01/28 11:50:14;;;;;;;11.73;10.53;;;;;;;-0.75;100.00;97711.09;5045608;28;20439;-64